Time;durP1;ratioP1;P1;durP2;ratioP2;P2;SDS_P1;SDS_P2;PMS_P1;PMS_P2;Temp;Humidity;BMP_temperature;BMP_pressure;BME280_temperature;BME280_humidity;BME280_pressure;Samples;Min_cycle;Max_cycle;Signal;HPM_P1;HPM_P2
2023/12/30 00:00:28;;;;;;;;;;;;;;;;;;4979533;28;20012;-72
2023/12/30 00:02:53;;;;;;;;;;;;;;;;;;4997755;28;20004;-73
2023/12/30 00:05:19;;;;;;;;;;;;;;;;;;4961281;28;20016;-74
2023/12/30 00:07:44;;;;;;;;;;;;;;;;;;4966765;28;20340;-73
2023/12/30 00:10:09;;;;;;;;;;;;;;;;;;4998736;28;19932;-73
2023/12/30 00:12:35;;;;;;;;;;;;;;;;;;4975222;28;19958;-73
2023/12/30 00:15:00;;;;;;;;;;;;;;;;;;4980057;28;19925;-74
2023/12/30 00:17:26;;;;;;;;;;;;;;;;;;5000383;28;19917;-73
2023/12/30 00:19:53;;;;;;;;;;;;;;;;;;4998591;28;19918;-75
2023/12/30 00:22:18;;;;;;;;;;;;;;;;;;4961688;28;20043;-74
2023/12/30 00:24:43;;;;;;;;;;;;;;;;;;4990561;28;19975;-73
2023/12/30 00:27:09;;;;;;;;;;;;;;;;;;4995469;28;19921;-73
2023/12/30 00:29:34;;;;;;;;;;;;;;;;;;4977918;28;20028;-73
2023/12/30 00:32:02;;;;;;;;;;;;;;;;;;4977597;28;19983;-75
2023/12/30 00:34:28;;;;;;;;;;;;;;;;;;4994567;28;19918;-73
2023/12/30 00:36:53;;;;;;;;;;;;;;;;;;4989488;28;19975;-73
2023/12/30 00:39:18;;;;;;;;;;;;;;;;;;4995912;28;20377;-74
2023/12/30 00:41:43;;;;;;;;;;;;;;;;;;4996483;28;19921;-75
2023/12/30 00:44:10;;;;;;;;;;;;;;;;;;4995171;28;19922;-73
2023/12/30 00:46:35;;;;;;;;;;;;;;;;;;4979164;28;19922;-76
2023/12/30 00:49:01;;;;;;;;;;;;;;;;;;4977261;28;19921;-72
2023/12/30 00:51:26;;;;;;;;;;;;;;;;;;4993832;28;19982;-73
2023/12/30 00:53:51;;;;;;;;;;;;;;;;;;4995259;28;19928;-74
2023/12/30 00:56:19;;;;;;;;;;;;;;;;;;4987918;28;20301;-75
2023/12/30 00:58:45;;;;;;;;;;;;;;;;;;4990374;28;20326;-74
2023/12/30 01:01:12;;;;;;;;;;;;;;;;;;4997504;23;19976;-88
2023/12/30 01:03:38;;;;;;;;;;;;;;;;;;5002990;28;19928;-84
2023/12/30 01:06:08;;;;;;;;;;;;;;;;;;4982664;28;19913;-87
2023/12/30 01:08:36;;;;;;;;;;;;;;;;;;5019014;28;20061;-89
2023/12/30 01:11:03;;;;;;;;;;;;;;;;;;4998601;28;19925;-89
2023/12/30 01:13:32;;;;;;;;;;;;;;;;;;4983881;28;20239;-88
2023/12/30 01:15:57;;;;;;;;;;;;;;;;;;4985136;28;20000;-89
2023/12/30 01:18:23;;;;;;;;;;;;;;;;;;4982440;28;20000;-87
2023/12/30 01:20:48;;;;;;;;;;;;;;;;;;4996415;28;19913;-89
2023/12/30 01:23:13;;;;;;;;;;;;;;;;;;4999508;28;19917;-88
2023/12/30 01:25:39;;;;;;;;;;;;;;;;;;5000575;28;20272;-89
2023/12/30 01:28:04;;;;;;;;;;;;;;;;;;4981599;28;19917;-88
2023/12/30 01:30:29;;;;;;;;;;;;;;;;;;4980239;28;19994;-88
2023/12/30 01:32:55;;;;;;;;;;;;;;;;;;4985290;28;19983;-89
2023/12/30 01:35:20;;;;;;;;;;;;;;;;;;5015196;28;19932;-89
2023/12/30 01:37:45;;;;;;;;;;;;;;;;;;4999640;28;19977;-87
2023/12/30 01:40:11;;;;;;;;;;;;;;;;;;5000435;28;19991;-86
2023/12/30 01:42:37;;;;;;;;;;;;;;;;;;4984621;28;19928;-89
2023/12/30 01:45:02;;;;;;;;;;;;;;;;;;4984396;28;20243;-88
2023/12/30 01:47:27;;;;;;;;;;;;;;;;;;4997614;28;19928;-90
2023/12/30 01:49:52;;;;;;;;;;;;;;;;;;4980267;28;19928;-87
2023/12/30 01:52:18;;;;;;;;;;;;;;;;;;4999018;28;19924;-88
2023/12/30 01:54:46;;;;;;;;;;;;;;;;;;4983824;28;19921;-90
2023/12/30 01:57:11;;;;;;;;;;;;;;;;;;4980588;28;20501;-87
2023/12/30 01:59:39;;;;;;;;;;;;;;;;;;4982882;28;20365;-88
2023/12/30 02:02:05;;;;;;;;;;;;;;;;;;4995698;28;19918;-89
2023/12/30 02:04:33;;;;;;;;;;;;;;;;;;4978518;28;19957;-88
2023/12/30 02:06:58;;;;;;;;;;;;;;;;;;4977416;28;19964;-89
2023/12/30 02:09:23;;;;;;;;;;;;;;;;;;4996492;28;20254;-89
2023/12/30 02:11:49;;;;;;;;;;;;;;;;;;4995474;28;19961;-88
2023/12/30 02:14:14;;;;;;;;;;;;;;;;;;4997635;28;19914;-88
2023/12/30 02:16:39;;;;;;;;;;;;;;;;;;4995193;28;19924;-88
2023/12/30 02:19:04;;;;;;;;;;;;;;;;;;4995980;28;19922;-85
2023/12/30 02:21:30;;;;;;;;;;;;;;;;;;4963572;28;20579;-85
2023/12/30 02:23:59;;;;;;;;;;;;;;;;;;4979634;28;19941;-86
2023/12/30 02:26:24;;;;;;;;;;;;;;;;;;4980831;28;19988;-89
2023/12/30 02:28:53;;;;;;;;;;;;;;;;;;4994645;28;21763;-85
2023/12/30 02:31:18;;;;;;;;;;;;;;;;;;5008914;28;19922;-87
2023/12/30 02:33:43;;;;;;;;;;;;;;;;;;4994666;28;19968;-86
2023/12/30 02:36:09;;;;;;;;;;;;;;;;;;4996261;28;19914;-86
2023/12/30 02:38:36;;;;;;;;;;;;;;;;;;4978937;28;20335;-86
2023/12/30 02:41:02;;;;;;;;;;;;;;;;;;4979948;28;19913;-87
2023/12/30 02:43:27;;;;;;;;;;;;;;;;;;4996440;28;20367;-88
2023/12/30 02:45:55;;;;;;;;;;;;;;;;;;4980594;28;19968;-88
2023/12/30 02:48:22;;;;;;;;;;;;;;;;;;4996710;28;20519;-88
2023/12/30 02:50:50;;;;;;;;;;;;;;;;;;4993491;28;19914;-88
2023/12/30 02:53:15;;;;;;;;;;;;;;;;;;4980387;28;19968;-88
2023/12/30 02:55:41;;;;;;;;;;;;;;;;;;4997305;28;19992;-87
2023/12/30 02:58:06;;;;;;;;;;;;;;;;;;4980292;28;19921;-86
2023/12/30 03:00:34;;;;;;;;;;;;;;;;;;4996004;28;20028;-86
2023/12/30 03:02:59;;;;;;;;;;;;;;;;;;4992471;28;19929;-89
2023/12/30 03:05:27;;;;;;;;;;;;;;;;;;4979635;28;19914;-87
2023/12/30 03:07:53;;;;;;;;;;;;;;;;;;4999252;28;19941;-86
2023/12/30 03:10:18;;;;;;;;;;;;;;;;;;4981786;28;19918;-88
2023/12/30 03:12:46;;;;;;;;;;;;;;;;;;4995676;28;20011;-86
2023/12/30 03:15:12;;;;;;;;;;;;;;;;;;4997237;28;20499;-88
2023/12/30 03:17:37;;;;;;;;;;;;;;;;;;4981920;28;19969;-87
2023/12/30 03:20:04;;;;;;;;;;;;;;;;;;4994978;28;20410;-90
2023/12/30 03:22:32;;;;;;;;;;;;;;;;;;4995684;28;19961;-89
2023/12/30 03:24:57;;;;;;;;;;;;;;;;;;4976192;28;19972;-88
2023/12/30 03:27:23;;;;;;;;;;;;;;;;;;4997730;28;20737;-87
2023/12/30 03:29:49;;;;;;;;;;;;;;;;;;4984226;28;19917;-89
2023/12/30 03:32:15;;;;;;;;;;;;;;;;;;4999051;28;19957;-87
2023/12/30 03:34:40;;;;;;;;;;;;;;;;;;4992492;28;20390;-89
2023/12/30 03:37:06;;;;;;;;;;;;;;;;;;4999190;28;20423;-87
2023/12/30 03:39:31;;;;;;;;;;;;;;;;;;4983513;28;19922;-87
2023/12/30 03:41:57;;;;;;;;;;;;;;;;;;5009940;28;20263;-87
2023/12/30 03:44:22;;;;;;;;;;;;;;;;;;4988304;28;19913;-90
2023/12/30 03:46:48;;;;;;;;;;;;;;;;;;4982437;28;21705;-87
2023/12/30 03:49:16;;;;;;;;;;;;;;;;;;4995892;28;19914;-87
2023/12/30 03:51:42;;;;;;;;;;;;;;;;;;4996177;28;19917;-89
2023/12/30 03:54:10;;;;;;;;;;;;;;;;;;4998206;28;20042;-89
2023/12/30 03:56:35;;;;;;;;;;;;;;;;;;5000169;28;20520;-86
2023/12/30 03:59:02;;;;;;;;;;;;;;;;;;4985988;28;19970;-87
2023/12/30 04:01:29;;;;;;;;;;;;;;;;;;4999369;28;19960;-87
2023/12/30 04:03:54;;;;;;;;;;;;;;;;;;4978313;28;20343;-90
2023/12/30 04:06:20;;;;;;;;;;;;;;;;;;4982509;28;19919;-89
2023/12/30 04:08:45;;;;;;;;;;;;;;;;;;4995344;28;20004;-87
2023/12/30 04:11:10;;;;;;;;;;;;;;;;;;4996937;28;19929;-86
2023/12/30 04:13:35;;;;;;;;;;;;;;;;;;4979740;28;19918;-88
2023/12/30 04:16:03;;;;;;;;;;;;;;;;;;4997000;28;20025;-87
2023/12/30 04:18:31;;;;;;;;;;;;;;;;;;4983368;28;19918;-87
2023/12/30 04:20:57;;;;;;;;;;;;;;;;;;4981930;28;19924;-86
2023/12/30 04:23:24;;;;;;;;;;;;;;;;;;4996899;28;19917;-89
2023/12/30 04:25:49;;;;;;;;;;;;;;;;;;4997364;28;20353;-85
2023/12/30 04:28:14;;;;;;;;;;;;;;;;;;4961959;28;19918;-85
2023/12/30 04:30:40;;;;;;;;;;;;;;;;;;4981544;28;19914;-87
2023/12/30 04:33:06;;;;;;;;;;;;;;;;;;4980177;28;19929;-86
2023/12/30 04:35:33;;;;;;;;;;;;;;;;;;4979962;28;20944;-90
2023/12/30 04:37:58;;;;;;;;;;;;;;;;;;4989029;28;19914;-87
2023/12/30 04:40:24;;;;;;;;;;;;;;;;;;4978445;28;19933;-88
2023/12/30 04:42:49;;;;;;;;;;;;;;;;;;4995265;28;19928;-88
2023/12/30 04:45:14;;;;;;;;;;;;;;;;;;4977337;28;19914;-87
2023/12/30 04:47:40;;;;;;;;;;;;;;;;;;4997801;28;19917;-88
2023/12/30 04:50:06;;;;;;;;;;;;;;;;;;5013219;28;19996;-87
2023/12/30 04:52:31;;;;;;;;;;;;;;;;;;4995031;28;20005;-87
2023/12/30 04:54:56;;;;;;;;;;;;;;;;;;4997892;28;19957;-89
2023/12/30 04:57:21;;;;;;;;;;;;;;;;;;4994456;28;19917;-87
2023/12/30 04:59:47;;;;;;;;;;;;;;;;;;4997870;28;20573;-85
2023/12/30 05:02:13;;;;;;;;;;;;;;;;;;5005968;28;20319;-90
2023/12/30 05:04:38;;;;;;;;;;;;;;;;;;4983352;28;19924;-88
2023/12/30 05:07:06;;;;;;;;;;;;;;;;;;4997249;28;20351;-88
2023/12/30 05:09:32;;;;;;;;;;;;;;;;;;4977557;28;19921;-86
2023/12/30 05:12:00;;;;;;;;;;;;;;;;;;4999772;28;19952;-88
2023/12/30 05:14:25;;;;;;;;;;;;;;;;;;4999213;28;19945;-85
2023/12/30 05:16:50;;;;;;;;;;;;;;;;;;4980752;28;19964;-88
2023/12/30 05:19:15;;;;;;;;;;;;;;;;;;4981995;28;19928;-86
2023/12/30 05:21:41;;;;;;;;;;;;;;;;;;5016113;28;19921;-88
2023/12/30 05:24:06;;;;;;;;;;;;;;;;;;4996532;28;19913;-87
2023/12/30 05:26:31;;;;;;;;;;;;;;;;;;4996844;28;19913;-91
2023/12/30 05:28:57;;;;;;;;;;;;;;;;;;5002418;28;20369;-86
2023/12/30 05:31:23;;;;;;;;;;;;;;;;;;5003009;28;19913;-86
2023/12/30 05:33:48;;;;;;;;;;;;;;;;;;4985350;28;20056;-86
2023/12/30 05:36:13;;;;;;;;;;;;;;;;;;4999396;28;20476;-89
2023/12/30 05:38:38;;;;;;;;;;;;;;;;;;4983887;28;20017;-88
2023/12/30 05:41:04;;;;;;;;;;;;;;;;;;5000684;28;19924;-89
2023/12/30 05:43:29;;;;;;;;;;;;;;;;;;4980931;28;20291;-88
2023/12/30 05:45:54;;;;;;;;;;;;;;;;;;4996192;28;20004;-88
2023/12/30 05:48:21;;;;;;;;;;;;;;;;;;4981674;28;20343;-86
2023/12/30 05:50:48;;;;;;;;;;;;;;;;;;4993232;28;20374;-85
2023/12/30 05:53:13;;;;;;;;;;;;;;;;;;4997804;28;19967;-86
2023/12/30 05:55:38;;;;;;;;;;;;;;;;;;4995023;28;19917;-87
2023/12/30 05:58:04;;;;;;;;;;;;;;;;;;4995758;28;19913;-87
2023/12/30 06:00:29;;;;;;;;;;;;;;;;;;4996207;28;19929;-88
2023/12/30 06:02:57;;;;;;;;;;;;;;;;;;4977675;28;19972;-88
2023/12/30 06:05:23;;;;;;;;;;;;;;;;;;4994814;28;19928;-86
2023/12/30 06:07:48;;;;;;;;;;;;;;;;;;4995147;28;20263;-86
2023/12/30 06:10:13;;;;;;;;;;;;;;;;;;4979161;28;19919;-87
2023/12/30 06:12:41;;;;;;;;;;;;;;;;;;4996991;28;19914;-87
2023/12/30 06:15:06;;;;;;;;;;;;;;;;;;4995230;28;19929;-85
2023/12/30 06:17:31;;;;;;;;;;;;;;;;;;4981193;28;19917;-88
2023/12/30 06:19:57;;;;;;;;;;;;;;;;;;4978004;28;19922;-87
2023/12/30 06:22:22;;;;;;;;;;;;;;;;;;4996367;28;19922;-88
2023/12/30 06:24:47;;;;;;;;;;;;;;;;;;4990959;28;19921;-88
2023/12/30 06:27:12;;;;;;;;;;;;;;;;;;4995969;28;20022;-88
2023/12/30 06:29:38;;;;;;;;;;;;;;;;;;4977793;28;19925;-91
2023/12/30 06:32:03;;;;;;;;;;;;;;;;;;4994254;28;19940;-86
2023/12/30 06:34:28;;;;;;;;;;;;;;;;;;4994084;28;19915;-86
2023/12/30 06:36:54;;;;;;;;;;;;;;;;;;4993042;28;19921;-84
2023/12/30 06:39:20;;;;;;;;;;;;;;;;;;4992465;28;20011;-89
2023/12/30 06:41:45;;;;;;;;;;;;;;;;;;4994189;28;20005;-86
2023/12/30 06:44:11;;;;;;;;;;;;;;;;;;4979603;28;19980;-89
2023/12/30 06:46:37;;;;;;;;;;;;;;;;;;4975360;28;19917;-85
2023/12/30 06:49:02;;;;;;;;;;;;;;;;;;4977978;28;20493;-85
2023/12/30 06:51:28;;;;;;;;;;;;;;;;;;4992797;28;19973;-89
2023/12/30 06:53:53;;;;;;;;;;;;;;;;;;4975589;28;20703;-88
2023/12/30 06:56:18;;;;;;;;;;;;;;;;;;4995655;28;19914;-85
2023/12/30 06:58:45;;;;;;;;;;;;;;;;;;4995919;28;20005;-87
2023/12/30 07:01:10;;;;;;;;;;;;;;;;;;4979043;28;19914;-87
2023/12/30 07:03:35;;;;;;;;;;;;;;;;;;4992989;28;20355;-86
2023/12/30 07:06:01;;;;;;;;;;;;;;;;;;4979659;28;19922;-91
2023/12/30 07:08:26;;;;;;;;;;;;;;;;;;4995816;28;19921;-86
2023/12/30 07:10:51;;;;;;;;;;;;;;;;;;4983617;28;19956;-87
2023/12/30 07:13:16;;;;;;;;;;;;;;;;;;4982941;28;19928;-86
2023/12/30 07:15:47;;;;;;;;;;;;;;;;;;4982582;28;19952;-91
2023/12/30 07:18:12;;;;;;;;;;;;;;;;;;4978556;28;19989;-87
2023/12/30 07:20:38;;;;;;;;;;;;;;;;;;4995157;28;20344;-86
2023/12/30 07:23:05;;;;;;;;;;;;;;;;;;4995345;28;19913;-87
2023/12/30 07:25:30;;;;;;;;;;;;;;;;;;4979438;28;20311;-87
2023/12/30 07:27:56;;;;;;;;;;;;;;;;;;4997747;28;20044;-90
2023/12/30 07:30:21;;;;;;;;;;;;;;;;;;5015015;28;19918;-85
2023/12/30 07:32:49;;;;;;;;;;;;;;;;;;4997682;28;20004;-85
2023/12/30 07:35:14;;;;;;;;;;;;;;;;;;4994199;28;19925;-87
2023/12/30 07:37:40;;;;;;;;;;;;;;;;;;5013016;28;20240;-87
2023/12/30 07:40:06;;;;;;;;;;;;;;;;;;4995415;28;19924;-86
2023/12/30 07:42:31;;;;;;;;;;;;;;;;;;4996162;28;19937;-88
2023/12/30 07:44:56;;;;;;;;;;;;;;;;;;5011418;28;19993;-85
2023/12/30 07:47:21;;;;;;;;;;;;;;;;;;4979014;28;19918;-90
2023/12/30 07:49:47;;;;;;;;;;;;;;;;;;4979836;28;19933;-86
2023/12/30 07:52:16;;;;;;;;;;;;;;;;;;4981301;28;19924;-87
2023/12/30 07:54:41;;;;;;;;;;;;;;;;;;4979579;28;19979;-86
2023/12/30 07:57:06;;;;;;;;;;;;;;;;;;4996236;28;19960;-87
2023/12/30 07:59:34;;;;;;;;;;;;;;;;;;4980484;28;19918;-89
2023/12/30 08:01:59;;;;;;;;;;;;;;;;;;4988714;28;20323;-87
2023/12/30 08:04:25;;;;;;;;;;;;;;;;;;4977000;28;20068;-85
2023/12/30 08:06:50;;;;;;;;;;;;;;;;;;4992672;28;20352;-87
2023/12/30 08:09:15;;;;;;;;;;;;;;;;;;4996785;28;19914;-88
2023/12/30 08:11:43;;;;;;;;;;;;;;;;;;4993006;28;19921;-86
2023/12/30 08:14:08;;;;;;;;;;;;;;;;;;4979458;28;19921;-86
2023/12/30 08:16:38;;;;;;;;;;;;;;;;;;4997275;28;19960;-85
2023/12/30 08:19:06;;;;;;;;;;;;;;;;;;4981396;28;19924;-89
2023/12/30 08:21:31;;;;;;;;;;;;;;;;;;4981165;28;20785;-86
2023/12/30 08:23:58;;;;;;;;;;;;;;;;;;5000708;28;19914;-87
2023/12/30 08:26:28;;;;;;;;;;;;;;;;;;4999512;28;19997;-87
2023/12/30 08:28:57;;;;;;;;;;;;;;;;;;4997409;28;19984;-87
2023/12/30 08:31:25;;;;;;;;;;;;;;;;;;4999211;28;19918;-88
2023/12/30 08:33:58;;;;;;;;;;;;;;;;;;4983342;28;20001;-86
2023/12/30 08:36:26;;;;;;;;;;;;;;;;;;4983434;28;19914;-85
2023/12/30 08:38:54;;;;;;;;;;;;;;;;;;4999815;28;19914;-86
2023/12/30 08:41:24;;;;;;;;;;;;;;;;;;4983522;28;19925;-87
2023/12/30 08:43:58;;;;;;;;;;;;;;;;;;4982290;28;19917;-86
2023/12/30 08:46:27;;;;;;;;;;;;;;;;;;5003800;28;19914;-86
2023/12/30 08:49:00;;;;;;;;;;;;;;;;;;4986698;28;19929;-86
2023/12/30 08:51:28;;;;;;;;;;;;;;;;;;4980943;28;19914;-88
2023/12/30 08:53:54;;;;;;;;;;;;;;;;;;5000165;28;19976;-86
2023/12/30 08:56:20;;;;;;;;;;;;;;;;;;4981855;28;19917;-84
2023/12/30 08:58:47;;;;;;;;;;;;;;;;;;4995034;28;19937;-86
2023/12/30 09:01:12;;;;;;;;;;;;;;;;;;4986940;28;19914;-86
2023/12/30 09:03:41;;;;;;;;;;;;;;;;;;4984861;28;19936;-86
2023/12/30 09:06:08;;;;;;;;;;;;;;;;;;4982517;28;19924;-88
2023/12/30 09:08:33;;;;;;;;;;;;;;;;;;4982656;28;19930;-88
2023/12/30 09:10:59;;;;;;;;;;;;;;;;;;4984787;28;20272;-87
2023/12/30 09:13:24;;;;;;;;;;;;;;;;;;5000372;28;19917;-86
2023/12/30 09:15:50;;;;;;;;;;;;;;;;;;4981132;28;19924;-87
2023/12/30 09:18:16;;;;;;;;;;;;;;;;;;4985606;28;19914;-87
2023/12/30 09:20:42;;;;;;;;;;;;;;;;;;4981865;28;21712;-86
2023/12/30 09:23:10;;;;;;;;;;;;;;;;;;5000956;28;20059;-89
2023/12/30 09:25:36;;;;;;;;;;;;;;;;;;4982277;28;20476;-86
2023/12/30 09:28:01;;;;;;;;;;;;;;;;;;5002181;28;19918;-85
2023/12/30 09:30:30;;;;;;;;;;;;;;;;;;4985322;28;19929;-85
2023/12/30 09:32:57;;;;;;;;;;;;;;;;;;4979971;28;19913;-88
2023/12/30 09:35:22;;;;;;;;;;;;;;;;;;4986456;28;20357;-84
2023/12/30 09:37:50;;;;;;;;;;;;;;;;;;5018523;28;19917;-86
2023/12/30 09:40:15;;;;;;;;;;;;;;;;;;4999110;28;20016;-87
2023/12/30 09:42:42;;;;;;;;;;;;;;;;;;4999447;28;20020;-89
2023/12/30 09:45:08;;;;;;;;;;;;;;;;;;4999911;28;19937;-84
2023/12/30 09:47:33;;;;;;;;;;;;;;;;;;4998411;28;20331;-86
2023/12/30 09:50:03;;;;;;;;;;;;;;;;;;4998665;28;20381;-85
2023/12/30 09:52:28;;;;;;;;;;;;;;;;;;5015522;28;20248;-86
2023/12/30 09:54:53;;;;;;;;;;;;;;;;;;4999249;28;20914;-89
2023/12/30 09:57:19;;;;;;;;;;;;;;;;;;5001858;28;19964;-86
2023/12/30 09:59:44;;;;;;;;;;;;;;;;;;5001745;28;20358;-86
2023/12/30 10:02:10;;;;;;;;;;;;;;;;;;4987991;28;19996;-85
2023/12/30 10:04:36;;;;;;;;;;;;;;;;;;4984044;28;19964;-83
2023/12/30 10:07:01;;;;;;;;;;;;;;;;;;4982325;28;20304;-83
2023/12/30 10:09:26;;;;;;;;;;;;;;;;;;5018317;28;20335;-85
2023/12/30 10:11:54;;;;;;;;;;;;;;;;;;5016558;28;20209;-85
2023/12/30 10:14:22;;;;;;;;;;;;;;;;;;4998893;28;19991;-87
2023/12/30 10:16:50;;;;;;;;;;;;;;;;;;4981955;28;19972;-88
2023/12/30 10:19:18;;;;;;;;;;;;;;;;;;4996593;28;19917;-90
2023/12/30 10:21:46;;;;;;;;;;;;;;;;;;4979357;28;19960;-86
2023/12/30 10:24:14;;;;;;;;;;;;;;;;;;4998488;28;19971;-86
2023/12/30 10:26:42;;;;;;;;;;;;;;;;;;4998133;28;19960;-85
2023/12/30 10:29:08;;;;;;;;;;;;;;;;;;4982400;28;19917;-85
2023/12/30 10:31:33;;;;;;;;;;;;;;;;;;4979154;28;20264;-88
2023/12/30 10:33:58;;;;;;;;;;;;;;;;;;4977678;28;19992;-84
2023/12/30 10:36:24;;;;;;;;;;;;;;;;;;4979236;28;19967;-86
2023/12/30 10:38:50;;;;;;;;;;;;;;;;;;4981562;28;20322;-87
2023/12/30 10:41:18;;;;;;;;;;;;;;;;;;4979110;28;19917;-86
2023/12/30 10:43:44;;;;;;;;;;;;;;;;;;4981808;28;19913;-87
2023/12/30 10:46:09;;;;;;;;;;;;;;;;;;4997721;28;20222;-85
2023/12/30 10:48:37;;;;;;;;;;;;;;;;;;4998503;28;19972;-86
2023/12/30 10:51:03;;;;;;;;;;;;;;;;;;4994328;28;20332;-84
2023/12/30 10:53:31;;;;;;;;;;;;;;;;;;4983333;28;19996;-88
2023/12/30 10:55:56;;;;;;;;;;;;;;;;;;4997798;28;19921;-86
2023/12/30 10:58:22;;;;;;;;;;;;;;;;;;4998695;28;19972;-85
2023/12/30 11:00:47;;;;;;;;;;;;;;;;;;4981266;28;20276;-86
2023/12/30 11:03:16;;;;;;;;;;;;;;;;;;4993962;28;19972;-86
2023/12/30 11:05:43;;;;;;;;;;;;;;;;;;4977801;28;19926;-85
2023/12/30 11:08:08;;;;;;;;;;;;;;;;;;4979276;28;19937;-85
2023/12/30 11:10:34;;;;;;;;;;;;;;;;;;4998218;28;19941;-87
2023/12/30 11:13:03;;;;;;;;;;;;;;;;;;4991621;28;19922;-84
2023/12/30 11:15:31;;;;;;;;;;;;;;;;;;5000828;28;19902;-83
2023/12/30 11:17:59;;;;;;;;;;;;;;;;;;4995550;28;19910;-85
2023/12/30 11:20:24;;;;;;;;;;;;;;;;;;4993016;28;20353;-86
2023/12/30 11:22:52;;;;;;;;;;;;;;;;;;4987094;28;20355;-85
2023/12/30 11:25:18;;;;;;;;;;;;;;;;;;4986430;28;19964;-85
2023/12/30 11:27:46;;;;;;;;;;;;;;;;;;4987100;28;20441;-84
2023/12/30 11:30:11;;;;;;;;;;;;;;;;;;4984110;28;19918;-86
2023/12/30 11:32:40;;;;;;;;;;;;;;;;;;5001666;28;19914;-84
2023/12/30 11:35:05;;;;;;;;;;;;;;;;;;4986721;28;19923;-84
2023/12/30 11:37:36;;;;;;;;;;;;;;;;;;4990758;28;19913;-85
2023/12/30 11:40:03;;;;;;;;;;;;;;;;;;4990894;28;19914;-86
2023/12/30 11:42:30;;;;;;;;;;;;;;;;;;4993087;28;19981;-86
2023/12/30 11:44:59;;;;;;;;;;;;;;;;;;4990960;28;19937;-84
2023/12/30 11:47:25;;;;;;;;;;;;;;;;;;5011308;28;20344;-84
2023/12/30 11:49:53;;;;;;;;;;;;;;;;;;4990606;28;19928;-85
2023/12/30 11:52:18;;;;;;;;;;;;;;;;;;4984331;28;19957;-90
2023/12/30 11:54:46;;;;;;;;;;;;;;;;;;5004256;28;20316;-86
2023/12/30 11:57:14;;;;;;;;;;;;;;;;;;4989348;28;19929;-90
2023/12/30 11:59:40;;;;;;;;;;;;;;;;;;4990497;28;19937;-89
2023/12/30 12:02:08;;;;;;;;;;;;;;;;;;4983245;28;20385;-91
2023/12/30 12:04:33;;;;;;;;;;;;;;;;;;4958551;28;19925;-90
2023/12/30 12:06:59;;;;;;;;;;;;;;;;;;4964806;28;19958;-88
2023/12/30 12:09:24;;;;;;;;;;;;;;;;;;4984194;28;20016;-86
2023/12/30 12:11:53;;;;;;;;;;;;;;;;;;4985774;28;20036;-88
2023/12/30 12:14:21;;;;;;;;;;;;;;;;;;4987160;28;19917;-87
2023/12/30 12:16:46;;;;;;;;;;;;;;;;;;4980066;28;19920;-90
2023/12/30 12:19:11;;;;;;;;;;;;;;;;;;4998357;28;19922;-86
2023/12/30 12:21:40;;;;;;;;;;;;;;;;;;4981058;28;19918;-85
2023/12/30 12:24:05;;;;;;;;;;;;;;;;;;4980659;28;19914;-85
2023/12/30 12:26:31;;;;;;;;;;;;;;;;;;4993320;28;19914;-86
2023/12/30 12:28:59;;;;;;;;;;;;;;;;;;4974895;28;19918;-86
2023/12/30 12:31:25;;;;;;;;;;;;;;;;;;4991459;28;19973;-85
2023/12/30 12:33:51;;;;;;;;;;;;;;;;;;4978760;28;20036;-84
2023/12/30 12:36:19;;;;;;;;;;;;;;;;;;4983271;28;20012;-85
2023/12/30 12:38:45;;;;;;;;;;;;;;;;;;4994718;28;19933;-86
2023/12/30 12:41:13;;;;;;;;;;;;;;;;;;4978067;28;19914;-87
2023/12/30 12:43:40;;;;;;;;;;;;;;;;;;4989147;28;20470;-89
2023/12/30 12:46:08;;;;;;;;;;;;;;;;;;4983555;28;19917;-87
2023/12/30 12:48:34;;;;;;;;;;;;;;;;;;4981525;28;20691;-87
2023/12/30 12:50:59;;;;;;;;;;;;;;;;;;4981376;28;19985;-89
2023/12/30 12:53:27;;;;;;;;;;;;;;;;;;4997390;28;19918;-85
2023/12/30 12:55:53;;;;;;;;;;;;;;;;;;4980242;28;20028;-86
2023/12/30 12:58:18;;;;;;;;;;;;;;;;;;4979321;28;20472;-87
2023/12/30 13:00:43;;;;;;;;;;;;;;;;;;4981528;28;19952;-87
2023/12/30 13:03:08;;;;;;;;;;;;;;;;;;4996926;28;19917;-88
2023/12/30 13:05:37;;;;;;;;;;;;;;;;;;4981049;28;19975;-87
2023/12/30 13:08:03;;;;;;;;;;;;;;;;;;4981118;28;20817;-86
2023/12/30 13:13:01;;;;;;;;;;;;;;;;;;4995227;28;19917;-87
2023/12/30 13:15:36;;;;;;;;;;;;;;;;;;4981622;28;19945;-85
2023/12/30 13:18:05;;;;;;;;;;;;;;;;;;4982290;28;20316;-86
2023/12/30 13:20:31;;;;;;;;;;;;;;;;;;4957168;28;19974;-87
2023/12/30 13:23:02;;;;;;;;;;;;;;;;;;4956442;28;19960;-87
2023/12/30 13:25:32;;;;;;;;;;;;;;;;;;4935596;28;20296;-85
2023/12/30 13:27:59;;;;;;;;;;;;;;;;;;4954440;28;19929;-87
2023/12/30 13:30:24;;;;;;;;;;;;;;;;;;4952820;28;19914;-85
2023/12/30 13:32:56;;;;;;;;;;;;;;;;;;4971120;28;19922;-85
2023/12/30 13:35:22;;;;;;;;;;;;;;;;;;4956540;28;20244;-86
2023/12/30 13:37:48;;;;;;;;;;;;;;;;;;4971849;28;19918;-85
2023/12/30 13:40:13;;;;;;;;;;;;;;;;;;4954536;28;19984;-90
2023/12/30 13:42:53;;;;;;;;;;;;;;;;;;4955699;28;22232;-87
2023/12/30 13:45:19;;;;;;;;;;;;;;;;;;4972720;28;19941;-86
2023/12/30 13:48:24;;;;;;;;;;;;;;;;;;4940011;28;19932;-88
2023/12/30 13:50:49;;;;;;;;;;;;;;;;;;4952064;28;19962;-86
2023/12/30 13:53:14;;;;;;;;;;;;;;;;;;4953127;28;20352;-88
2023/12/30 13:55:40;;;;;;;;;;;;;;;;;;4936457;28;19961;-88
2023/12/30 13:58:06;;;;;;;;;;;;;;;;;;4946546;28;19921;-88
2023/12/30 14:00:31;;;;;;;;;;;;;;;;;;4971438;28;19914;-84
2023/12/30 14:02:56;;;;;;;;;;;;;;;;;;4972032;28;20430;-87
2023/12/30 14:05:31;;;;;;;;;;;;;;;;;;4972370;28;19922;-89
2023/12/30 14:08:13;;;;;;;;;;;;;;;;;;4969887;28;19937;-90
2023/12/30 14:10:43;;;;;;;;;;;;;;;;;;4952364;28;20863;-86
2023/12/30 14:13:12;;;;;;;;;;;;;;;;;;4954922;28;20020;-86
2023/12/30 14:15:38;;;;;;;;;;;;;;;;;;4957673;28;20004;-88
2023/12/30 14:18:04;;;;;;;;;;;;;;;;;;4960431;28;20528;-86
2023/12/30 14:20:31;;;;;;;;;;;;;;;;;;4991145;28;19917;-85
2023/12/30 14:22:58;;;;;;;;;;;;;;;;;;4995204;28;20000;-86
2023/12/30 14:25:35;;;;;;;;;;;;;;;;;;;;;
2023/12/30 14:28:04;;;;;;;;;;;;;;;;;;4994946;28;19972;-88
2023/12/30 14:30:33;;;;;;;;;;;;;;;;;;5012385;28;19920;-85
2023/12/30 14:33:01;;;;;;;;;;;;;;;;;;4978345;28;20332;-87
2023/12/30 14:35:35;;;;;;;;;;;;;;;;;;4981637;28;19924;-87
2023/12/30 14:38:01;;;;;;;;;;;;;;;;;;4996265;28;19921;-86
2023/12/30 14:40:30;;;;;;;;;;;;;;;;;;4995110;28;19941;-86
2023/12/30 14:42:55;;;;;;;;;;;;;;;;;;4976963;28;20000;-86
2023/12/30 14:45:21;;;;;;;;;;;;;;;;;;4978453;28;20363;-86
2023/12/30 14:47:49;;;;;;;;;;;;;;;;;;4980517;28;19918;-85
2023/12/30 14:50:15;;;;;;;;;;;;;;;;;;4978103;28;19944;-85
2023/12/30 14:52:42;;;;;;;;;;;;;;;;;;4994209;28;19925;-85
2023/12/30 14:55:08;;;;;;;;;;;;;;;;;;4977123;28;19914;-85
2023/12/30 14:57:37;;;;;;;;;;;;;;;;;;4969853;28;19929;-85
2023/12/30 15:00:06;;;;;;;;;;;;;;;;;;4980274;28;19917;-87
2023/12/30 15:02:34;;;;;;;;;;;;;;;;;;4983071;28;19918;-86
2023/12/30 15:05:03;;;;;;;;;;;;;;;;;;4979414;28;19963;-87
2023/12/30 15:07:28;;;;;;;;;;;;;;;;;;5000952;28;19951;-86
2023/12/30 15:09:56;;;;;;;;;;;;;;;;;;4983248;28;19980;-85
2023/12/30 15:12:23;;;;;;;;;;;;;;;;;;4982177;28;21361;-86
2023/12/30 15:14:57;;;;;;;;;;;;;;;;;;5006377;28;20335;-86
2023/12/30 15:17:26;;;;;;;;;;;;;;;;;;5000240;28;19940;-89
2023/12/30 15:19:57;;;;;;;;;;;;;;;;;;5013432;28;20343;-86
2023/12/30 15:22:29;;;;;;;;;;;;;;;;;;4977849;28;20406;-88
2023/12/30 15:24:54;;;;;;;;;;;;;;;;;;4978140;28;19922;-86
2023/12/30 15:27:22;;;;;;;;;;;;;;;;;;4979671;28;20227;-88
2023/12/30 15:29:55;;;;;;;;;;;;;;;;;;4979185;28;19924;-86
2023/12/30 15:32:21;;;;;;;;;;;;;;;;;;4977682;28;20016;-87
2023/12/30 15:34:46;;;;;;;;;;;;;;;;;;4983688;28;20398;-85
2023/12/30 15:37:15;;;;;;;;;;;;;;;;;;4997065;28;19964;-87
2023/12/30 15:39:45;;;;;;;;;;;;;;;;;;4981453;28;20346;-89
2023/12/30 15:42:16;;;;;;;;;;;;;;;;;;4980199;28;20602;-88
2023/12/30 15:44:44;;;;;;;;;;;;;;;;;;4994239;28;19913;-86
2023/12/30 15:47:12;;;;;;;;;;;;;;;;;;4979809;28;20451;-87
2023/12/30 15:49:41;;;;;;;;;;;;;;;;;;4976808;28;20040;-86
2023/12/30 15:52:08;;;;;;;;;;;;;;;;;;4977236;28;19933;-86
2023/12/30 15:54:33;;;;;;;;;;;;;;;;;;4979888;28;19917;-84
2023/12/30 15:57:00;;;;;;;;;;;;;;;;;;4992760;28;20008;-86
2023/12/30 15:59:28;;;;;;;;;;;;;;;;;;4983007;28;20012;-86
2023/12/30 16:01:55;;;;;;;;;;;;;;;;;;4998723;28;19921;-86
2023/12/30 16:04:20;;;;;;;;;;;;;;;;;;4985451;28;19921;-85
2023/12/30 16:06:47;;;;;;;;;;;;;;;;;;4995851;28;19978;-86
2023/12/30 16:09:14;;;;;;;;;;;;;;;;;;4982487;28;20036;-88
2023/12/30 16:11:39;;;;;;;;;;;;;;;;;;5001465;28;20375;-87
2023/12/30 16:14:10;;;;;;;;;;;;;;;;;;4981004;28;19968;-87
2023/12/30 16:16:43;;;;;;;;;;;;;;;;;;4999364;28;20350;-88
2023/12/30 16:19:10;;;;;;;;;;;;;;;;;;4998847;28;20259;-87
2023/12/30 16:21:41;;;;;;;;;;;;;;;;;;4981554;28;19929;-86
2023/12/30 16:24:16;;;;;;;;;;;;;;;;;;4981241;28;19928;-85
2023/12/30 16:26:42;;;;;;;;;;;;;;;;;;5000016;28;20362;-87
2023/12/30 16:29:07;;;;;;;;;;;;;;;;;;4980775;28;19929;-89
2023/12/30 16:31:33;;;;;;;;;;;;;;;;;;4998022;28;19968;-87
2023/12/30 16:34:03;;;;;;;;;;;;;;;;;;4998534;28;19924;-87
2023/12/30 16:36:33;;;;;;;;;;;;;;;;;;4984610;28;19957;-85
2023/12/30 16:39:17;;;;;;;;;;;;;;;;;;5015342;28;19956;-88
2023/12/30 16:41:47;;;;;;;;;;;;;;;;;;4992950;28;19921;-87
2023/12/30 16:44:13;;;;;;;;;;;;;;;;;;4980732;28;20019;-86